Time;durP1;ratioP1;P1;durP2;ratioP2;P2;SDS_P1;SDS_P2;PMS_P1;PMS_P2;Temp;Humidity;BMP_temperature;BMP_pressure;BME280_temperature;BME280_humidity;BME280_pressure;Samples;Min_cycle;Max_cycle;Signal;HPM_P1;HPM_P2
2024/03/03 00:01:16;;;;;;;41.27;20.77;;;7.10;99.90;;;;;;4189664;28;21493;-73
2024/03/03 00:03:18;;;;;;;44.70;21.63;;;7.00;99.90;;;;;;4186385;28;20640;-73
2024/03/03 00:05:19;;;;;;;40.33;20.30;;;7.00;99.90;;;;;;4189041;28;20308;-73
2024/03/03 00:07:24;;;;;;;44.57;21.63;;;7.00;99.90;;;;;;4190863;28;20190;-73
2024/03/03 00:09:27;;;;;;;43.10;20.53;;;7.00;99.90;;;;;;4186701;28;20198;-73
2024/03/03 00:11:29;;;;;;;42.00;20.97;;;6.90;99.90;;;;;;4180275;28;20801;-72
2024/03/03 00:13:31;;;;;;;46.50;20.97;;;6.90;99.90;;;;;;4183849;28;20237;-73
2024/03/03 00:15:33;;;;;;;46.80;22.27;;;6.90;99.90;;;;;;4189164;28;20232;-73
2024/03/03 00:17:36;;;;;;;43.67;20.90;;;6.90;99.90;;;;;;4186173;28;20638;-73
2024/03/03 00:19:38;;;;;;;45.97;21.73;;;6.90;99.90;;;;;;4185405;28;20229;-72
2024/03/03 00:21:40;;;;;;;44.03;20.57;;;6.90;99.90;;;;;;4190330;28;20261;-72
2024/03/03 00:23:42;;;;;;;43.37;20.70;;;6.80;99.90;;;;;;4188833;28;20248;-74
2024/03/03 00:25:45;;;;;;;44.07;21.23;;;6.80;99.90;;;;;;4185442;28;20222;-73
2024/03/03 00:27:47;;;;;;;48.50;21.80;;;6.80;99.90;;;;;;4179849;28;20324;-74
2024/03/03 00:29:49;;;;;;;48.03;21.93;;;6.80;99.90;;;;;;4186793;28;20209;-74
2024/03/03 00:31:50;;;;;;;43.20;21.53;;;6.80;99.90;;;;;;4186116;28;20246;-74
2024/03/03 00:33:52;;;;;;;47.37;22.83;;;6.80;99.90;;;;;;4186374;28;20214;-75
2024/03/03 00:35:53;;;;;;;46.53;21.53;;;6.80;99.90;;;;;;4183344;28;20222;-75
2024/03/03 00:37:55;;;;;;;44.97;21.57;;;6.80;99.90;;;;;;4184513;28;20207;-76
2024/03/03 00:39:56;;;;;;;47.17;22.90;;;6.80;99.90;;;;;;4185726;28;20844;-75
2024/03/03 00:42:00;;;;;;;47.57;22.33;;;6.70;99.90;;;;;;4186038;28;20790;-75
2024/03/03 00:44:02;;;;;;;46.07;21.67;;;6.70;99.90;;;;;;4184902;28;20206;-75
2024/03/03 00:46:04;;;;;;;44.90;22.20;;;6.70;99.90;;;;;;4190484;28;20225;-75
2024/03/03 00:48:07;;;;;;;45.87;21.53;;;6.70;99.90;;;;;;4184711;28;20222;-74
2024/03/03 00:50:09;;;;;;;41.87;21.67;;;6.70;99.90;;;;;;4185898;28;20284;-74
2024/03/03 00:52:10;;;;;;;47.43;22.30;;;6.70;99.90;;;;;;4189268;28;20253;-75
2024/03/03 00:54:12;;;;;;;44.37;22.60;;;6.70;99.90;;;;;;4193346;28;20747;-74
2024/03/03 00:56:14;;;;;;;44.10;22.23;;;6.70;99.90;;;;;;4186622;28;20663;-75
2024/03/03 00:58:18;;;;;;;45.27;22.23;;;6.60;99.90;;;;;;4188507;28;20197;-74
2024/03/03 01:00:20;;;;;;;46.70;22.57;;;6.60;99.90;;;;;;4184165;28;20749;-73
2024/03/03 01:02:22;;;;;;;49.70;23.47;;;6.60;99.90;;;;;;4186654;28;20240;-73
2024/03/03 01:04:24;;;;;;;47.17;22.63;;;6.60;99.90;;;;;;4185623;28;20264;-76
2024/03/03 01:06:25;;;;;;;48.70;21.70;;;6.50;99.90;;;;;;4183306;28;20249;-75
2024/03/03 01:08:27;;;;;;;46.67;21.93;;;6.50;99.90;;;;;;4188282;28;20230;-75
2024/03/03 01:10:30;;;;;;;44.73;21.77;;;6.50;99.90;;;;;;4183312;28;20510;-72
2024/03/03 01:12:32;;;;;;;42.67;21.37;;;6.50;99.90;;;;;;4186800;28;20229;-72
2024/03/03 01:14:35;;;;;;;42.17;20.87;;;6.40;99.90;;;;;;4186666;28;20241;-73
2024/03/03 01:16:36;;;;;;;44.03;21.23;;;6.40;99.90;;;;;;4187601;28;20483;-72
2024/03/03 01:18:38;;;;;;;41.77;21.07;;;6.40;99.90;;;;;;4189489;28;20612;-73
2024/03/03 01:20:39;;;;;;;46.00;22.57;;;6.40;99.90;;;;;;4183008;28;20297;-72
2024/03/03 01:22:41;;;;;;;45.03;22.70;;;6.40;99.90;;;;;;4183406;28;20210;-73
2024/03/03 01:24:42;;;;;;;52.10;23.60;;;6.40;99.90;;;;;;4187903;28;20208;-73
2024/03/03 01:26:44;;;;;;;48.87;23.87;;;6.30;99.90;;;;;;4182555;28;20226;-72
2024/03/03 01:28:45;;;;;;;48.40;23.10;;;6.30;99.90;;;;;;4185731;28;20203;-72
2024/03/03 01:30:49;;;;;;;46.33;22.27;;;6.30;99.90;;;;;;4181770;28;20492;-72
2024/03/03 01:32:51;;;;;;;47.67;22.60;;;6.20;99.90;;;;;;4182309;28;20300;-72
2024/03/03 01:34:54;;;;;;;51.03;23.90;;;6.20;99.90;;;;;;4183483;28;20959;-73
2024/03/03 01:36:56;;;;;;;43.90;20.70;;;6.20;99.90;;;;;;4182673;28;20554;-73
2024/03/03 01:38:57;;;;;;;51.43;22.20;;;6.20;99.90;;;;;;4182715;28;21190;-73
2024/03/03 01:40:58;;;;;;;47.30;23.13;;;6.20;99.90;;;;;;4181968;28;20503;-73
2024/03/03 01:43:04;;;;;;;49.67;22.70;;;6.20;99.90;;;;;;4187592;28;20452;-73
2024/03/03 01:45:07;;;;;;;48.20;23.00;;;6.10;99.90;;;;;;4182525;28;20221;-73
2024/03/03 01:47:11;;;;;;;47.77;22.73;;;6.10;99.90;;;;;;4189209;28;20539;-73
2024/03/03 01:49:16;;;;;;;47.07;22.90;;;6.10;99.90;;;;;;4183142;28;20479;-73
2024/03/03 01:51:18;;;;;;;46.83;23.40;;;6.10;99.90;;;;;;4182663;28;20579;-73
2024/03/03 01:53:21;;;;;;;43.50;21.93;;;6.10;99.90;;;;;;4184539;28;20948;-74
2024/03/03 01:55:23;;;;;;;51.73;24.03;;;6.00;99.90;;;;;;4179760;28;20481;-73
2024/03/03 01:57:25;;;;;;;50.03;23.60;;;6.00;99.90;;;;;;4189645;28;20445;-74
2024/03/03 01:59:28;;;;;;;53.13;24.43;;;6.00;99.90;;;;;;4190512;28;20511;-74
2024/03/03 02:01:31;;;;;;;47.67;22.87;;;6.00;99.90;;;;;;4181315;28;20876;-75
2024/03/03 02:03:35;;;;;;;54.00;25.73;;;6.00;99.90;;;;;;4183599;28;20462;-75
2024/03/03 02:05:37;;;;;;;52.10;23.83;;;6.00;99.90;;;;;;4185421;28;20245;-76
2024/03/03 02:07:40;;;;;;;50.30;24.43;;;6.00;99.90;;;;;;4182676;28;20975;-76
2024/03/03 02:09:43;;;;;;;51.03;24.97;;;6.00;99.90;;;;;;4183230;28;20216;-75
2024/03/03 02:11:45;;;;;;;53.13;24.67;;;6.00;99.90;;;;;;4184651;28;20463;-76
2024/03/03 02:13:47;;;;;;;48.97;23.83;;;5.90;99.90;;;;;;4183226;28;21159;-76
2024/03/03 02:15:49;;;;;;;53.53;24.63;;;5.90;99.90;;;;;;4184789;28;20469;-75
2024/03/03 02:17:51;;;;;;;55.77;26.33;;;5.90;99.90;;;;;;4187477;28;20627;-75
2024/03/03 02:19:54;;;;;;;55.57;26.30;;;5.90;99.90;;;;;;4183081;28;20469;-75
2024/03/03 02:21:58;;;;;;;57.10;26.57;;;5.90;99.90;;;;;;4189990;28;20474;-75
2024/03/03 02:24:00;;;;;;;52.47;25.40;;;5.90;99.90;;;;;;4189523;28;20456;-75
2024/03/03 02:26:02;;;;;;;54.67;26.50;;;5.90;99.90;;;;;;4186188;28;21017;-76
2024/03/03 02:28:05;;;;;;;58.77;26.37;;;5.90;99.90;;;;;;4188866;28;20953;-76
2024/03/03 02:30:08;;;;;;;49.47;24.50;;;5.90;99.90;;;;;;4188079;28;20506;-76
2024/03/03 02:32:09;;;;;;;57.50;26.00;;;5.80;99.90;;;;;;4185396;28;20221;-76
2024/03/03 02:34:11;;;;;;;60.43;27.50;;;5.80;99.90;;;;;;4185707;28;20493;-76
2024/03/03 02:36:13;;;;;;;58.70;28.20;;;5.80;99.90;;;;;;4185705;28;21098;-75
2024/03/03 02:38:17;;;;;;;54.77;25.47;;;5.80;99.90;;;;;;4189150;28;20514;-75
2024/03/03 02:40:19;;;;;;;55.00;26.20;;;5.80;99.90;;;;;;4186289;28;20253;-74
2024/03/03 02:42:20;;;;;;;53.50;27.27;;;5.80;99.90;;;;;;4188453;28;20475;-75
2024/03/03 02:44:23;;;;;;;63.30;28.73;;;5.70;99.90;;;;;;4187212;28;20500;-76
2024/03/03 02:46:25;;;;;;;59.40;27.07;;;5.80;99.90;;;;;;4190602;28;20463;-76
2024/03/03 02:48:27;;;;;;;58.70;27.50;;;5.70;99.90;;;;;;4182351;28;20210;-75
2024/03/03 02:50:29;;;;;;;58.87;27.53;;;5.80;99.90;;;;;;4184802;28;20948;-74
2024/03/03 02:52:31;;;;;;;59.20;27.13;;;5.70;99.90;;;;;;4187857;28;20549;-73
2024/03/03 02:54:34;;;;;;;63.50;28.50;;;5.70;99.90;;;;;;4188287;28;20461;-73
2024/03/03 02:56:36;;;;;;;58.03;27.43;;;5.80;99.90;;;;;;4187431;28;20464;-73
2024/03/03 02:58:38;;;;;;;59.07;28.47;;;5.70;99.90;;;;;;4184677;28;20814;-73
2024/03/03 03:00:40;;;;;;;60.17;28.33;;;5.70;99.90;;;;;;4184704;28;20950;-73
2024/03/03 03:02:40;;;;;;;60.10;29.00;;;5.70;99.90;;;;;;4185887;28;20485;-73
2024/03/03 03:04:42;;;;;;;58.00;28.70;;;5.70;99.90;;;;;;4185817;28;20441;-73
2024/03/03 03:06:44;;;;;;;60.30;28.57;;;5.70;99.90;;;;;;4187339;28;20228;-75
2024/03/03 03:08:46;;;;;;;53.80;26.53;;;5.70;99.90;;;;;;4196385;28;20444;-74
2024/03/03 03:10:49;;;;;;;61.30;27.73;;;5.70;99.90;;;;;;4205679;28;20452;-74
2024/03/03 03:12:51;;;;;;;60.03;27.27;;;5.70;99.90;;;;;;4200546;28;20525;-74
2024/03/03 03:14:53;;;;;;;59.23;27.93;;;5.70;99.90;;;;;;4196094;28;20449;-73
2024/03/03 03:16:55;;;;;;;60.07;27.40;;;5.70;99.90;;;;;;4208537;28;20463;-73
2024/03/03 03:18:57;;;;;;;57.03;26.57;;;5.70;99.90;;;;;;4190368;28;20206;-73
2024/03/03 03:20:59;;;;;;;55.67;26.37;;;5.70;99.90;;;;;;4191152;28;20490;-73
2024/03/03 03:23:00;;;;;;;62.30;28.83;;;5.70;99.90;;;;;;4187184;28;20445;-73
2024/03/03 03:25:04;;;;;;;60.13;27.10;;;5.70;99.90;;;;;;4186318;28;20567;-73
2024/03/03 03:27:06;;;;;;;58.87;27.77;;;5.70;99.90;;;;;;4184245;28;20213;-73
2024/03/03 03:29:08;;;;;;;56.97;27.57;;;5.70;99.90;;;;;;4188673;28;20487;-73
2024/03/03 03:31:10;;;;;;;61.37;27.47;;;5.40;99.90;;;;;;4180368;28;20537;-74
2024/03/03 03:33:12;;;;;;;61.67;28.00;;;5.60;99.90;;;;;;4185325;28;20486;-76
2024/03/03 03:35:14;;;;;;;58.27;27.10;;;5.70;99.90;;;;;;4185774;28;20471;-73
2024/03/03 03:37:16;;;;;;;54.87;26.30;;;5.60;99.90;;;;;;4191630;28;20467;-74
2024/03/03 03:39:19;;;;;;;56.70;26.37;;;5.70;99.90;;;;;;4184625;28;20476;-75
2024/03/03 03:41:21;;;;;;;55.13;26.30;;;5.60;99.90;;;;;;4183498;28;20460;-73
2024/03/03 03:43:24;;;;;;;52.43;26.07;;;5.60;99.90;;;;;;4185531;28;20456;-73
2024/03/03 03:45:26;;;;;;;51.40;24.57;;;5.60;99.90;;;;;;4185452;28;20563;-75
2024/03/03 03:47:28;;;;;;;56.30;25.47;;;5.60;99.90;;;;;;4185496;28;20544;-74
2024/03/03 03:49:30;;;;;;;57.20;25.73;;;5.60;99.90;;;;;;4184987;28;20445;-73
2024/03/03 03:51:32;;;;;;;55.87;25.47;;;5.60;99.90;;;;;;4185929;28;21030;-74
2024/03/03 03:53:33;;;;;;;55.80;25.33;;;5.60;99.90;;;;;;4191175;28;20482;-73
2024/03/03 03:55:35;;;;;;;57.27;25.50;;;5.60;99.90;;;;;;4186820;28;20511;-73
2024/03/03 03:57:37;;;;;;;58.10;25.30;;;5.60;99.90;;;;;;4186649;28;20824;-73
2024/03/03 03:59:41;;;;;;;55.20;25.63;;;5.50;99.90;;;;;;4185474;28;20480;-73
2024/03/03 04:01:43;;;;;;;58.93;25.43;;;5.60;99.90;;;;;;4184175;28;20970;-76
2024/03/03 04:03:44;;;;;;;55.13;25.43;;;5.50;99.90;;;;;;4188293;28;20449;-76
2024/03/03 04:05:46;;;;;;;59.03;26.30;;;5.50;99.90;;;;;;4182581;28;20472;-73
2024/03/03 04:07:48;;;;;;;54.10;25.27;;;5.50;99.90;;;;;;4186877;28;20451;-75
2024/03/03 04:09:50;;;;;;;56.97;26.50;;;5.50;99.90;;;;;;4179564;28;20464;-73
2024/03/03 04:11:52;;;;;;;54.43;25.00;;;5.50;99.90;;;;;;4187601;28;20555;-73
2024/03/03 04:13:53;;;;;;;55.63;26.17;;;5.40;99.90;;;;;;4188133;28;20447;-74
2024/03/03 04:15:56;;;;;;;53.73;24.57;;;5.50;99.90;;;;;;4189934;28;20470;-75
2024/03/03 04:17:57;;;;;;;60.33;25.60;;;5.50;99.90;;;;;;4181929;28;20209;-74
2024/03/03 04:19:59;;;;;;;57.60;25.50;;;5.50;99.90;;;;;;4188150;28;21157;-73
2024/03/03 04:22:00;;;;;;;54.40;25.30;;;5.50;99.90;;;;;;4185803;28;20236;-74
2024/03/03 04:24:03;;;;;;;57.83;25.53;;;5.50;99.90;;;;;;4184375;28;20536;-73
2024/03/03 04:26:05;;;;;;;59.07;25.87;;;5.50;99.90;;;;;;4180429;28;20479;-73
2024/03/03 04:28:07;;;;;;;55.10;24.67;;;5.50;99.90;;;;;;4184266;28;20452;-72
2024/03/03 04:30:10;;;;;;;50.37;24.80;;;5.50;99.90;;;;;;4186995;28;20448;-74
2024/03/03 04:32:14;;;;;;;52.90;24.67;;;5.40;99.90;;;;;;4186591;28;20455;-73
2024/03/03 04:34:18;;;;;;;47.83;23.47;;;5.40;99.90;;;;;;4181960;28;20457;-73
2024/03/03 04:36:19;;;;;;;47.97;22.97;;;5.40;99.90;;;;;;4187925;28;20476;-75
2024/03/03 04:38:21;;;;;;;49.63;23.73;;;5.40;99.90;;;;;;4187980;28;20558;-73
2024/03/03 04:40:23;;;;;;;51.57;23.87;;;5.40;99.90;;;;;;4185760;28;20486;-74
2024/03/03 04:42:25;;;;;;;51.17;23.37;;;5.40;99.90;;;;;;4187609;28;21002;-73
2024/03/03 04:44:27;;;;;;;49.40;22.37;;;5.30;99.90;;;;;;4188429;28;20959;-73
2024/03/03 04:46:28;;;;;;;52.00;23.70;;;5.30;99.90;;;;;;4181451;28;20999;-73
2024/03/03 04:48:32;;;;;;;48.00;22.50;;;5.30;99.90;;;;;;4187682;28;20447;-75
2024/03/03 04:50:32;;;;;;;51.93;23.60;;;5.30;99.90;;;;;;4180912;28;21413;-73
2024/03/03 04:52:34;;;;;;;49.03;23.43;;;5.30;99.90;;;;;;4185669;28;20494;-73
2024/03/03 04:54:36;;;;;;;50.57;23.73;;;5.30;99.90;;;;;;4187500;28;20636;-73
2024/03/03 04:56:38;;;;;;;47.70;23.20;;;5.20;99.90;;;;;;4183356;28;20958;-75
2024/03/03 04:58:40;;;;;;;49.37;23.63;;;5.20;99.90;;;;;;4186105;28;21141;-73
2024/03/03 05:00:42;;;;;;;51.70;23.47;;;5.20;99.90;;;;;;4183448;28;20527;-72
2024/03/03 05:02:44;;;;;;;54.93;25.10;;;5.20;99.90;;;;;;4185067;28;20945;-75
2024/03/03 05:04:47;;;;;;;47.53;23.00;;;5.20;99.90;;;;;;4188754;28;20931;-74
2024/03/03 05:06:49;;;;;;;54.37;24.07;;;5.20;99.90;;;;;;4179580;28;20449;-73
2024/03/03 05:08:51;;;;;;;53.30;24.20;;;5.20;99.90;;;;;;4183545;28;20525;-73
2024/03/03 05:10:53;;;;;;;48.27;22.07;;;5.20;99.90;;;;;;4182084;28;20486;-73
2024/03/03 05:12:55;;;;;;;50.27;22.40;;;5.20;99.90;;;;;;4183619;28;21036;-74
2024/03/03 05:14:57;;;;;;;49.70;22.73;;;5.20;99.90;;;;;;4186324;28;20495;-74
2024/03/03 05:16:59;;;;;;;50.47;23.20;;;5.20;99.90;;;;;;4188309;28;20448;-74
2024/03/03 05:19:01;;;;;;;47.40;23.23;;;5.20;99.90;;;;;;4185305;28;20542;-75
2024/03/03 05:21:05;;;;;;;49.97;23.57;;;5.20;99.90;;;;;;4186827;28;21059;-74
2024/03/03 05:23:06;;;;;;;48.37;22.60;;;5.20;99.90;;;;;;4183868;28;20451;-73
2024/03/03 05:25:10;;;;;;;48.97;23.30;;;5.20;99.90;;;;;;4187000;28;20473;-73
2024/03/03 05:27:11;;;;;;;48.67;22.07;;;5.20;99.90;;;;;;4186310;28;20462;-74
2024/03/03 05:29:13;;;;;;;47.40;20.60;;;5.20;99.90;;;;;;4192115;28;20551;-73
2024/03/03 05:31:39;;;;;;;46.77;22.40;;;5.20;99.90;;;;;;4198661;28;20244;-73
2024/03/03 05:33:41;;;;;;;49.47;21.97;;;5.10;99.90;;;;;;4194309;28;21336;-73
2024/03/03 05:35:43;;;;;;;43.63;21.40;;;5.10;99.90;;;;;;4187505;28;20830;-73
2024/03/03 05:37:46;;;;;;;44.67;20.90;;;5.10;99.90;;;;;;4191872;28;20479;-73
2024/03/03 05:39:48;;;;;;;46.87;22.13;;;5.10;99.90;;;;;;4185831;28;20475;-74
2024/03/03 05:41:50;;;;;;;46.43;21.10;;;5.10;99.90;;;;;;4184634;28;20488;-73
2024/03/03 05:43:51;;;;;;;44.07;20.80;;;5.10;99.90;;;;;;4185632;28;20459;-73
2024/03/03 05:45:52;;;;;;;42.40;20.53;;;5.10;99.90;;;;;;4180847;28;20559;-73
2024/03/03 05:47:55;;;;;;;42.07;20.23;;;5.10;99.90;;;;;;4180170;28;20281;-73
2024/03/03 05:49:56;;;;;;;42.17;20.37;;;5.00;99.90;;;;;;4190029;28;20461;-73
2024/03/03 05:51:58;;;;;;;43.07;20.80;;;5.00;99.90;;;;;;4188903;28;20453;-74
2024/03/03 05:54:02;;;;;;;45.03;21.33;;;5.00;99.90;;;;;;4188169;28;20947;-73
2024/03/03 05:56:05;;;;;;;42.47;19.53;;;5.00;99.90;;;;;;4186032;28;20519;-75
2024/03/03 05:58:07;;;;;;;45.73;20.53;;;5.00;99.90;;;;;;4187404;28;20494;-73
2024/03/03 06:00:10;;;;;;;44.00;21.00;;;5.00;99.90;;;;;;4181854;28;21042;-73
2024/03/03 06:02:12;;;;;;;42.63;20.03;;;5.00;99.90;;;;;;4188689;28;20857;-73
2024/03/03 06:04:15;;;;;;;43.07;19.63;;;5.00;99.90;;;;;;4190361;28;20451;-73
2024/03/03 06:06:17;;;;;;;46.90;20.37;;;5.00;99.90;;;;;;4183242;28;20476;-74
2024/03/03 06:08:19;;;;;;;47.77;20.60;;;5.00;99.90;;;;;;4183974;28;20456;-73
2024/03/03 06:10:22;;;;;;;43.73;20.37;;;5.00;99.90;;;;;;4185775;28;20489;-75
2024/03/03 06:12:24;;;;;;;44.57;20.90;;;5.00;99.90;;;;;;4188715;28;20475;-73
2024/03/03 06:14:26;;;;;;;45.77;20.60;;;5.00;99.90;;;;;;4184771;28;20491;-74
2024/03/03 06:16:28;;;;;;;39.30;19.47;;;5.00;99.90;;;;;;4186082;28;20503;-72
2024/03/03 06:18:32;;;;;;;42.17;19.17;;;5.00;99.90;;;;;;4191370;28;20463;-73
2024/03/03 06:20:34;;;;;;;44.13;20.57;;;5.00;99.90;;;;;;4192809;28;20488;-73
2024/03/03 06:22:36;;;;;;;38.30;18.83;;;5.00;99.90;;;;;;4197664;28;20455;-72
2024/03/03 06:24:38;;;;;;;39.87;19.10;;;5.00;99.90;;;;;;4192911;28;20863;-72
2024/03/03 06:26:41;;;;;;;42.03;18.80;;;5.00;99.90;;;;;;4191862;28;20486;-73
2024/03/03 06:28:45;;;;;;;42.33;20.37;;;5.00;99.90;;;;;;4183986;28;20490;-73
2024/03/03 06:30:47;;;;;;;45.43;20.10;;;5.00;99.90;;;;;;4189582;28;20479;-76
2024/03/03 06:32:50;;;;;;;45.50;21.50;;;5.00;99.90;;;;;;4194567;28;20995;-73
2024/03/03 06:34:51;;;;;;;38.00;18.53;;;5.00;99.90;;;;;;4194557;28;20458;-73
2024/03/03 06:36:53;;;;;;;43.53;19.93;;;5.00;99.90;;;;;;4190549;28;21944;-75
2024/03/03 06:38:56;;;;;;;41.90;19.33;;;5.00;99.90;;;;;;4187052;28;21040;-73
2024/03/03 06:40:58;;;;;;;45.73;20.63;;;5.00;99.90;;;;;;4185135;28;20536;-73
2024/03/03 06:43:01;;;;;;;45.57;21.43;;;5.00;99.90;;;;;;4185320;28;20494;-74
2024/03/03 06:45:04;;;;;;;42.00;20.70;;;5.10;99.90;;;;;;4188450;28;20514;-73
2024/03/03 06:47:06;;;;;;;40.23;19.10;;;5.00;99.90;;;;;;4188908;28;21106;-73
2024/03/03 06:49:08;;;;;;;44.23;20.97;;;5.00;99.90;;;;;;4190185;28;20563;-73
2024/03/03 06:51:11;;;;;;;42.67;19.70;;;5.10;99.90;;;;;;4197053;28;20501;-74
2024/03/03 06:53:13;;;;;;;43.57;19.57;;;5.10;99.90;;;;;;4189461;28;20472;-74
2024/03/03 06:55:15;;;;;;;39.40;19.23;;;5.10;99.90;;;;;;4182855;28;20486;-72
2024/03/03 06:57:17;;;;;;;42.53;20.30;;;5.10;99.90;;;;;;4184717;28;20483;-73
2024/03/03 06:59:20;;;;;;;41.27;20.03;;;5.10;99.90;;;;;;4187811;28;20464;-73
2024/03/03 07:01:22;;;;;;;39.93;19.03;;;5.20;99.90;;;;;;4181190;28;21006;-73
2024/03/03 07:03:49;;;;;;;39.47;18.33;;;5.20;99.90;;;;;;4190204;28;20520;-74
2024/03/03 07:05:51;;;;;;;43.47;20.10;;;5.10;99.90;;;;;;4186547;28;21194;-72
2024/03/03 07:07:57;;;;;;;36.70;18.77;;;5.20;99.90;;;;;;4192036;28;20459;-75
2024/03/03 07:09:59;;;;;;;40.23;19.67;;;5.20;99.90;;;;;;4190876;28;20449;-73
2024/03/03 07:12:01;;;;;;;40.23;18.17;;;5.20;99.90;;;;;;4190811;28;20469;-73
2024/03/03 07:14:03;;;;;;;39.63;19.00;;;5.20;99.90;;;;;;4184255;28;21534;-73
2024/03/03 07:16:07;;;;;;;37.73;18.57;;;5.20;99.90;;;;;;4184607;28;20551;-73
2024/03/03 07:18:09;;;;;;;33.70;17.83;;;5.20;99.90;;;;;;4192620;28;20489;-75
2024/03/03 07:20:12;;;;;;;36.93;16.97;;;5.30;99.90;;;;;;4190563;28;20501;-73
2024/03/03 07:22:14;;;;;;;31.47;16.47;;;5.30;99.90;;;;;;4182505;28;20458;-73
2024/03/03 07:24:16;;;;;;;35.80;18.43;;;5.30;99.90;;;;;;4180309;28;20471;-76
2024/03/03 07:26:18;;;;;;;40.60;18.93;;;5.30;99.90;;;;;;4190626;28;20490;-74
2024/03/03 07:28:19;;;;;;;38.20;17.90;;;5.30;99.90;;;;;;4185262;28;20455;-74
2024/03/03 07:30:22;;;;;;;36.27;17.97;;;5.30;99.90;;;;;;4189128;28;20817;-73
2024/03/03 07:32:28;;;;;;;36.30;19.00;;;5.30;99.90;;;;;;4180938;28;20205;-74
2024/03/03 07:34:30;;;;;;;38.27;17.97;;;5.30;99.90;;;;;;4184844;28;20460;-75
2024/03/03 07:36:32;;;;;;;37.90;17.70;;;5.40;99.90;;;;;;4183177;28;22405;-76
2024/03/03 07:38:34;;;;;;;36.27;18.60;;;5.40;99.90;;;;;;4194237;28;21200;-76
2024/03/03 07:40:37;;;;;;;36.93;17.47;;;5.40;99.90;;;;;;4185109;28;20819;-76
2024/03/03 07:42:39;;;;;;;39.33;18.53;;;5.50;99.90;;;;;;4189567;28;20451;-74
2024/03/03 07:44:41;;;;;;;41.13;20.60;;;5.50;99.90;;;;;;4192200;28;20455;-74
2024/03/03 07:46:42;;;;;;;42.53;20.40;;;5.50;99.90;;;;;;4189615;28;21147;-74
2024/03/03 07:48:46;;;;;;;39.27;19.03;;;5.60;99.90;;;;;;4186948;28;20496;-75
2024/03/03 07:50:48;;;;;;;42.93;19.87;;;5.60;99.90;;;;;;4184571;28;20985;-76
2024/03/03 07:52:50;;;;;;;35.73;18.33;;;5.60;99.90;;;;;;4186708;28;20448;-74
2024/03/03 07:54:52;;;;;;;37.10;18.37;;;5.70;99.90;;;;;;4203805;28;20447;-75
2024/03/03 07:56:55;;;;;;;36.97;18.33;;;5.70;99.90;;;;;;4183461;28;20488;-75
2024/03/03 07:59:02;;;;;;;37.73;18.50;;;5.70;99.90;;;;;;4187052;28;21131;-75
2024/03/03 08:01:04;;;;;;;36.33;18.07;;;5.70;99.90;;;;;;4185847;28;20497;-76
2024/03/03 08:03:07;;;;;;;38.77;18.77;;;5.80;99.90;;;;;;4184240;28;20444;-74
2024/03/03 08:05:10;;;;;;;36.37;18.43;;;5.80;99.90;;;;;;4187956;28;20471;-74
2024/03/03 08:07:12;;;;;;;40.57;19.70;;;5.90;99.90;;;;;;4184069;28;20471;-75
2024/03/03 08:09:14;;;;;;;42.60;20.83;;;5.90;99.90;;;;;;4186670;28;20453;-74
2024/03/03 08:11:16;;;;;;;40.03;19.17;;;5.90;99.90;;;;;;4183749;28;20840;-75
2024/03/03 08:13:17;;;;;;;42.37;21.10;;;6.00;99.90;;;;;;4185776;28;20494;-75
2024/03/03 08:15:19;;;;;;;35.87;18.33;;;6.00;99.90;;;;;;4183129;28;20460;-76
2024/03/03 08:17:21;;;;;;;37.80;19.40;;;6.10;99.90;;;;;;4184048;28;20584;-75
2024/03/03 08:19:23;;;;;;;44.93;20.07;;;6.10;99.90;;;;;;4181768;28;20208;-75
2024/03/03 08:21:26;;;;;;;39.83;19.33;;;6.20;99.90;;;;;;4185996;28;20507;-75
2024/03/03 08:23:28;;;;;;;42.50;19.60;;;6.30;99.90;;;;;;4185358;28;20511;-74
2024/03/03 08:25:35;;;;;;;36.90;19.00;;;6.30;99.90;;;;;;4186487;28;20471;-74
2024/03/03 08:27:37;;;;;;;40.87;20.03;;;6.40;99.90;;;;;;4184596;28;20508;-75
2024/03/03 08:29:39;;;;;;;39.87;18.80;;;6.40;99.90;;;;;;4184209;28;20210;-75
2024/03/03 08:31:42;;;;;;;31.93;17.87;;;6.50;99.90;;;;;;4183394;28;20457;-75
2024/03/03 08:33:43;;;;;;;33.93;17.87;;;6.50;99.90;;;;;;4185714;28;20206;-75
2024/03/03 08:35:45;;;;;;;42.47;18.87;;;6.60;99.90;;;;;;4186004;28;20509;-75
2024/03/03 08:37:48;;;;;;;36.83;18.57;;;6.70;99.90;;;;;;4183806;28;20539;-73
2024/03/03 08:39:50;;;;;;;39.30;19.57;;;6.70;99.90;;;;;;4184471;28;20212;-74
2024/03/03 08:41:52;;;;;;;38.67;19.70;;;6.80;99.90;;;;;;4185083;28;20241;-74
2024/03/03 08:43:53;;;;;;;36.50;19.00;;;6.80;99.90;;;;;;4184085;28;20686;-75
2024/03/03 08:45:55;;;;;;;34.43;18.10;;;6.90;99.90;;;;;;4186840;28;20225;-75
2024/03/03 08:47:57;;;;;;;38.90;18.87;;;7.00;99.90;;;;;;4186691;28;20226;-75
2024/03/03 08:49:59;;;;;;;38.63;19.47;;;7.10;99.90;;;;;;4183412;28;20198;-76
2024/03/03 08:52:03;;;;;;;40.60;19.07;;;7.20;99.90;;;;;;4184415;28;20195;-74
2024/03/03 08:54:05;;;;;;;37.83;18.77;;;7.20;99.90;;;;;;4183909;28;20222;-74
2024/03/03 08:56:07;;;;;;;35.77;17.80;;;7.30;99.90;;;;;;4185604;28;20664;-73
2024/03/03 08:58:09;;;;;;;34.30;17.73;;;7.40;99.90;;;;;;4183944;28;20214;-74
2024/03/03 09:00:15;;;;;;;39.20;18.57;;;7.50;99.90;;;;;;4183077;28;20202;-75
2024/03/03 09:02:17;;;;;;;33.73;18.13;;;7.60;99.90;;;;;;4183754;28;20261;-74
2024/03/03 09:04:19;;;;;;;33.10;17.77;;;7.60;99.90;;;;;;4184605;28;20212;-74
2024/03/03 09:06:21;;;;;;;36.93;18.40;;;7.70;99.90;;;;;;4186409;28;20249;-74
2024/03/03 09:08:23;;;;;;;34.83;18.33;;;7.80;99.90;;;;;;4183134;28;20200;-73
2024/03/03 09:10:27;;;;;;;36.40;17.60;;;7.80;99.90;;;;;;4182885;28;20194;-74
2024/03/03 09:12:29;;;;;;;32.93;17.13;;;8.10;99.90;;;;;;4184058;28;20272;-75
2024/03/03 09:14:33;;;;;;;35.37;17.63;;;8.00;99.90;;;;;;4201077;28;20631;-74
2024/03/03 09:16:34;;;;;;;31.33;17.33;;;8.10;99.90;;;;;;4181913;28;20228;-75
2024/03/03 09:18:36;;;;;;;36.07;17.50;;;8.20;99.90;;;;;;4183566;28;20581;-74
2024/03/03 09:20:39;;;;;;;34.97;17.80;;;8.30;99.90;;;;;;4184174;28;20584;-74
2024/03/03 09:22:41;;;;;;;35.83;17.60;;;8.40;99.90;;;;;;4182704;28;20239;-75
2024/03/03 09:24:43;;;;;;;33.27;17.17;;;8.50;99.90;;;;;;4184546;28;20204;-75
2024/03/03 09:26:47;;;;;;;31.37;17.53;;;8.60;99.90;;;;;;4182229;28;20209;-75
2024/03/03 09:28:49;;;;;;;35.60;17.57;;;8.70;99.90;;;;;;4183324;28;20223;-75
2024/03/03 09:30:51;;;;;;;31.73;16.90;;;8.70;99.90;;;;;;4183674;28;20235;-73
2024/03/03 09:32:53;;;;;;;33.10;17.07;;;8.80;99.90;;;;;;4185253;28;20266;-73
2024/03/03 09:34:55;;;;;;;34.60;17.57;;;8.90;99.90;;;;;;4182608;28;20204;-73
2024/03/03 09:36:58;;;;;;;31.17;16.43;;;8.90;99.90;;;;;;4186019;28;20253;-73
2024/03/03 09:38:59;;;;;;;30.43;16.13;;;9.00;99.90;;;;;;4182275;28;20970;-73
2024/03/03 09:41:01;;;;;;;28.10;15.80;;;9.10;99.90;;;;;;4183664;28;20212;-72
2024/03/03 09:43:04;;;;;;;32.20;16.63;;;9.20;99.90;;;;;;4184992;28;20957;-73
2024/03/03 09:45:12;;;;;;;29.33;15.97;;;9.30;99.90;;;;;;4182306;28;20399;-73
2024/03/03 09:47:14;;;;;;;26.37;14.17;;;9.40;99.90;;;;;;4186820;28;20244;-75
2024/03/03 09:49:16;;;;;;;25.97;14.60;;;9.50;99.90;;;;;;4185577;28;20197;-74
2024/03/03 09:51:19;;;;;;;28.97;14.87;;;9.60;99.90;;;;;;4185203;28;20312;-74
2024/03/03 09:53:21;;;;;;;29.73;15.83;;;9.60;99.90;;;;;;4187338;28;20244;-73
2024/03/03 09:55:25;;;;;;;24.57;14.00;;;9.70;99.90;;;;;;4186979;28;20247;-74
2024/03/03 09:57:29;;;;;;;30.00;15.30;;;9.70;99.90;;;;;;4185883;28;20342;-73
2024/03/03 09:59:32;;;;;;;27.07;15.17;;;9.90;99.90;;;;;;4185408;28;20205;-73
2024/03/03 10:01:36;;;;;;;28.13;15.63;;;10.00;99.90;;;;;;4179546;28;20297;-73
2024/03/03 10:03:43;;;;;;;24.47;14.47;;;10.00;99.90;;;;;;4183052;28;20210;-73
2024/03/03 10:05:46;;;;;;;27.30;14.60;;;10.10;99.90;;;;;;4189217;28;20263;-73
2024/03/03 10:07:52;;;;;;;28.00;14.50;;;10.30;99.90;;;;;;4185802;28;20677;-73
2024/03/03 10:10:05;;;;;;;24.37;13.43;;;10.30;99.90;;;;;;4182474;28;20252;-73
2024/03/03 10:12:10;;;;;;;26.23;14.00;;;10.40;99.90;;;;;;4185439;28;20296;-74
2024/03/03 10:14:12;;;;;;;25.17;13.43;;;10.40;99.90;;;;;;4184013;28;21180;-72
2024/03/03 10:16:17;;;;;;;23.80;12.80;;;10.60;99.90;;;;;;4186833;28;20280;-75
2024/03/03 10:18:20;;;;;;;23.87;12.63;;;10.60;99.90;;;;;;4193260;28;20795;-76
2024/03/03 10:20:26;;;;;;;24.27;12.67;;;10.70;99.90;;;;;;4181860;28;20671;-74
2024/03/03 10:22:28;;;;;;;23.53;13.13;;;10.90;99.90;;;;;;4185072;28;20237;-73
2024/03/03 10:24:30;;;;;;;22.00;13.07;;;11.00;99.90;;;;;;4189025;28;20210;-73
2024/03/03 10:26:36;;;;;;;25.23;13.20;;;11.10;99.90;;;;;;4188188;28;20765;-73
2024/03/03 10:28:37;;;;;;;25.63;13.43;;;11.20;99.90;;;;;;4188056;28;20233;-73